Private Wetterstation Grnau im Almtal
www.gruenau.tv

Wetterdaten: aktuell Donnerstag, 21.09.2017 20:55
Datum Zeit Temperatur Temp. min Temp. max Luftfeuchte Luftdruck Regen Wind Richtung Richtung Sonne ET UV Solar Taupunkt Windchill Windben
21.09.2017 20:55 9,8 C 9,8 C 9,8 C 89 % 1021,7 hPa 0,0 l/m 3,8 km/h (1 Bft) S-SO 159 0 min 0,000 mm 0,0 UV-I 0 W/m 8,1 C 9,8 C 6,4 km/h (2 Bft)
21.09.2017 19:55 10,3 C 10,3 C 10,3 C 88 % 1021,4 hPa 0,0 l/m 1,3 km/h (1 Bft) O-SO 103 0 min 0,025 mm 0,0 UV-I 0 W/m 8,4 C 10,3 C 3,2 km/h (1 Bft)
21.09.2017 18:55 10,8 C 10,8 C 10,9 C 88 % 1021,1 hPa 0,0 l/m 2,7 km/h (1 Bft) S 174 0 min 0,025 mm 0,0 UV-I 5 W/m 8,9 C 10,8 C 4,8 km/h (1 Bft)
21.09.2017 17:55 11,4 C 11,4 C 11,6 C 87 % 1021,1 hPa 0,0 l/m 3,5 km/h (1 Bft) S-SO 153 0 min 0,051 mm 0,0 UV-I 35 W/m 9,3 C 11,4 C 6,4 km/h (2 Bft)
21.09.2017 16:55 12,2 C 12,2 C 12,3 C 85 % 1021,3 hPa 0,0 l/m 0,0 km/h (0 Bft) O-SO 118 0 min 0,076 mm 0,0 UV-I 49 W/m 9,8 C 12,2 C 0,0 km/h (0 Bft)
21.09.2017 15:55 12,6 C 12,6 C 12,6 C 84 % 1021,3 hPa 0,0 l/m 0,9 km/h (0 Bft) O-SO 117 0 min 0,076 mm 0,8 UV-I 156 W/m 10,0 C 12,6 C 3,2 km/h (1 Bft)
21.09.2017 14:55 12,1 C 12,1 C 12,1 C 81 % 1021,5 hPa 0,0 l/m 1,9 km/h (1 Bft) S-SW 208 0 min 0,102 mm 0,8 UV-I 139 W/m 8,9 C 12,1 C 4,8 km/h (1 Bft)
21.09.2017 13:55 12,1 C 12,1 C 12,1 C 84 % 1021,8 hPa 0,0 l/m 1,7 km/h (1 Bft) O 99 0 min 0,102 mm 2,2 UV-I 304 W/m 9,5 C 12,1 C 3,2 km/h (1 Bft)
21.09.2017 12:55 11,8 C 11,7 C 11,8 C 87 % 1022,0 hPa 0,0 l/m 0,7 km/h (0 Bft) O-SO 105 0 min 0,076 mm 1,6 UV-I 221 W/m 9,7 C 11,8 C 3,2 km/h (1 Bft)
21.09.2017 11:55 10,3 C 10,2 C 10,3 C 89 % 1022,3 hPa 0,0 l/m 1,2 km/h (1 Bft) O-SO 107 0 min 0,051 mm 0,9 UV-I 155 W/m 8,6 C 10,3 C 3,2 km/h (1 Bft)
21.09.2017 10:55 9,3 C 9,3 C 9,3 C 89 % 1022,7 hPa 0,0 l/m 0,8 km/h (0 Bft) S-SO 153 0 min 0,001 mm 0,6 UV-I 116 W/m 7,6 C 9,3 C 3,2 km/h (1 Bft)
21.09.2017 09:55 8,7 C 8,7 C 8,8 C 89 % 1022,1 hPa 0,0 l/m 1,7 km/h (1 Bft) NW 324 0 min 0,025 mm 0,0 UV-I 69 W/m 7,0 C 8,7 C 4,8 km/h (1 Bft)
21.09.2017 08:55 8,1 C 8,0 C 8,1 C 89 % 1021,9 hPa 0,0 l/m 1,0 km/h (0 Bft) S-SO 155 0 min 0,000 mm 0,0 UV-I 32 W/m 6,4 C 8,1 C 3,2 km/h (1 Bft)
21.09.2017 07:55 7,9 C 7,8 C 7,9 C 89 % 1021,8 hPa 0,0 l/m 2,5 km/h (1 Bft) S 188 0 min 0,000 mm 0,0 UV-I 11 W/m 6,2 C 7,9 C 4,8 km/h (1 Bft)
21.09.2017 06:55 7,8 C 7,8 C 7,8 C 89 % 1021,6 hPa 0,0 l/m 2,7 km/h (1 Bft) SW 220 0 min 0,000 mm 0,0 UV-I 0 W/m 6,1 C 7,8 C 4,8 km/h (1 Bft)
21.09.2017 05:55 7,8 C 7,8 C 7,8 C 89 % 1021,4 hPa 0,0 l/m 1,1 km/h (1 Bft) S-SW 197 0 min 0,000 mm 0,0 UV-I 0 W/m 6,1 C 7,8 C 3,2 km/h (1 Bft)
21.09.2017 04:55 8,1 C 8,0 C 8,1 C 89 % 1021,6 hPa 0,2 l/m 0,5 km/h (0 Bft) O-SO 115 0 min 0,000 mm 0,0 UV-I 0 W/m 6,4 C 8,1 C 3,2 km/h (1 Bft)
21.09.2017 03:55 8,1 C 8,1 C 8,1 C 89 % 1021,9 hPa 0,4 l/m 2,4 km/h (1 Bft) SO 137 0 min 0,000 mm 0,0 UV-I 0 W/m 6,4 C 8,1 C 4,8 km/h (1 Bft)
21.09.2017 02:55 8,3 C 8,2 C 8,3 C 89 % 1022,1 hPa 0,0 l/m 0,8 km/h (0 Bft) SO 142 0 min 0,000 mm 0,0 UV-I 0 W/m 6,6 C 8,3 C 3,2 km/h (1 Bft)
21.09.2017 01:55 8,3 C 8,3 C 8,3 C 89 % 1022,3 hPa 0,2 l/m 2,5 km/h (1 Bft) SW 221 0 min 0,000 mm 0,0 UV-I 0 W/m 6,6 C 8,3 C 6,4 km/h (2 Bft)
21.09.2017 00:55 8,5 C 8,5 C 8,6 C 89 % 1022,2 hPa 0,4 l/m 2,6 km/h (1 Bft) SO 137 0 min 0,000 mm 0,0 UV-I 0 W/m 6,8 C 8,5 C 4,8 km/h (1 Bft)
20.09.2017 23:55 8,7 C 8,7 C 8,7 C 89 % 1022,0 hPa 0,0 l/m 2,2 km/h (1 Bft) S-SO 151 0 min 0,000 mm 0,0 UV-I 0 W/m 7,0 C 8,7 C 6,4 km/h (2 Bft)
20.09.2017 22:55 8,8 C 8,8 C 8,8 C 89 % 1021,8 hPa 0,0 l/m 3,7 km/h (1 Bft) O-SO 120 0 min 0,000 mm 0,0 UV-I 0 W/m 7,1 C 8,8 C 6,4 km/h (2 Bft)
20.09.2017 21:55 8,9 C 8,9 C 8,9 C 89 % 1021,7 hPa 0,0 l/m 3,6 km/h (1 Bft) SO 131 0 min 0,000 mm 0,0 UV-I 0 W/m 7,2 C 8,9 C 6,4 km/h (2 Bft)
20.09.2017 21:00 9,1 C 9,1 C 9,3 C 89 % 1021,8 hPa 0,0 l/m 1,6 km/h (1 Bft) O-SO 112 0 min 0,000 mm 0,0 UV-I 0 W/m 7,4 C 9,1 C 6,4 km/h (2 Bft)
_ Min-Zeit 05:10 05:10 05:55 14:45 18:25 - 00:25 - - - - - - 05:25 05:25 00:25
Minimum _ 7,8 C 7,8 C 7,8 C 81 % 1021,0 hPa - 0,0 km/h (0 Bft) - - - - - - 6,1 C 7,8 C 0,0 km/h (0 Bft)
_ Max-Zeit 16:15 16:15 16:15 21:00 11:00 00:00 22:05 - - 21:00 13:00 13:55 14:00 16:20 16:15 22:05
Maximum _ 12,8 C 12,7 C 12,8 C 89 % 1022,8 hPa 0,2 l/m 5,3 km/h
SO (1 Bft)
- - 0 min 0,102 mm 2,2 UV-I 306 W/m 10,2 C 12,8 C 14,5 km/h
O-SO (3 Bft)
Durchschnitt _ 9,5 C 9,5 C 9,6 C 88 % 1021,8 hPa #1,2 l/m 1,8 km/h (1 Bft) O-SO - #0 min. #0,635 mm 1,0 UV-I 99 W/m 7,6 C 9,5 C 4,9 km/h (1 Bft)
Rauscher Max - www.gruenau.tv